createdAt,value
2022-10-25T00:01:12.258Z,58.20
2022-10-25T00:03:38.555Z,57.45
2022-10-25T00:06:04.836Z,61.25
2022-10-25T00:08:31.292Z,66.25
2022-10-25T00:10:57.538Z,66.00
2022-10-25T00:13:24.082Z,62.35
2022-10-25T00:15:50.330Z,63.28
2022-10-25T00:18:16.611Z,58.08
2022-10-25T00:20:42.900Z,66.60
2022-10-25T00:23:09.413Z,65.53
2022-10-25T00:25:35.669Z,66.38
2022-10-25T00:28:01.920Z,82.38
2022-10-25T00:30:28.190Z,108.35
2022-10-25T00:32:54.590Z,77.30
2022-10-25T00:35:20.842Z,77.07
2022-10-25T00:37:47.122Z,90.15
2022-10-25T00:40:13.370Z,86.07
2022-10-25T00:42:39.624Z,76.32
2022-10-25T00:45:05.867Z,60.22
2022-10-25T00:47:33.480Z,63.70
2022-10-25T00:49:59.730Z,68.15
2022-10-25T00:52:26.131Z,72.07
2022-10-25T00:54:52.387Z,65.40
2022-10-25T00:57:18.655Z,70.55
2022-10-25T00:59:44.895Z,75.65
2022-10-25T01:02:11.293Z,70.88
2022-10-25T01:04:37.682Z,72.22
2022-10-25T01:07:03.947Z,70.90
2022-10-25T01:09:30.255Z,70.95
2022-10-25T01:11:56.504Z,79.68
2022-10-25T01:14:23.090Z,68.15
2022-10-25T01:16:49.348Z,62.80
2022-10-25T01:19:15.629Z,63.22
2022-10-25T01:21:41.874Z,67.18
2022-10-25T01:24:08.128Z,75.25
2022-10-25T01:26:34.388Z,79.32
2022-10-25T01:29:00.630Z,66.50
2022-10-25T01:31:26.937Z,58.38
2022-10-25T01:33:53.192Z,59.40
2022-10-25T01:36:19.502Z,59.88
2022-10-25T01:38:45.762Z,57.67
2022-10-25T01:41:12.053Z,57.42
2022-10-25T01:43:39.184Z,60.75
2022-10-25T01:46:05.364Z,55.80
2022-10-25T01:48:31.611Z,57.90
2022-10-25T01:50:57.866Z,60.25
2022-10-25T01:53:24.116Z,58.42
2022-10-25T01:55:50.355Z,55.70
2022-10-25T01:58:16.611Z,58.60
2022-10-25T02:00:42.899Z,60.65
2022-10-25T02:03:09.180Z,54.97
2022-10-25T02:05:35.433Z,65.40
2022-10-25T02:08:01.735Z,59.15
2022-10-25T02:10:28.185Z,62.17
2022-10-25T02:12:54.429Z,58.25
2022-10-25T02:15:20.680Z,56.97
2022-10-25T02:17:46.974Z,55.50
2022-10-25T02:20:13.332Z,64.88
2022-10-25T02:22:41.261Z,59.88
2022-10-25T02:25:07.537Z,61.47
2022-10-25T02:27:33.844Z,59.95
2022-10-25T02:30:00.124Z,65.13
2022-10-25T02:32:26.378Z,57.22
2022-10-25T02:34:52.672Z,59.00
2022-10-25T02:37:18.923Z,61.42
2022-10-25T02:39:45.479Z,67.70
2022-10-25T02:42:11.724Z,66.57
2022-10-25T02:44:37.991Z,66.13
2022-10-25T02:47:04.248Z,96.05
2022-10-25T02:49:30.551Z,108.45
2022-10-25T02:51:56.823Z,113.70
2022-10-25T02:54:23.078Z,114.72
2022-10-25T02:56:52.274Z,117.88
2022-10-25T02:59:18.964Z,124.68
2022-10-25T03:01:45.272Z,136.00
2022-10-25T03:04:11.592Z,121.97
2022-10-25T03:06:37.834Z,116.45
2022-10-25T03:09:04.112Z,113.95
2022-10-25T03:11:30.366Z,96.70
2022-10-25T03:13:56.643Z,91.30
2022-10-25T03:16:22.944Z,107.28
2022-10-25T03:18:49.199Z,115.25
2022-10-25T03:21:15.529Z,124.43
2022-10-25T03:23:41.851Z,134.05
2022-10-25T03:26:08.120Z,132.05
2022-10-25T03:28:34.532Z,102.82
2022-10-25T03:31:00.808Z,95.35
2022-10-25T03:33:27.442Z,98.15
2022-10-25T03:35:53.745Z,89.38
2022-10-25T03:38:19.983Z,92.20
2022-10-25T03:40:46.263Z,88.97
2022-10-25T03:43:12.578Z,93.72
2022-10-25T03:45:38.888Z,87.70
2022-10-25T03:48:05.132Z,84.53
2022-10-25T03:50:31.398Z,79.75
2022-10-25T03:52:57.688Z,103.68
2022-10-25T03:55:23.995Z,157.23
2022-10-25T03:57:50.283Z,156.50
2022-10-25T04:00:16.538Z,144.77
2022-10-25T04:02:42.829Z,146.88
2022-10-25T04:05:09.119Z,137.10
2022-10-25T04:07:35.379Z,147.23
2022-10-25T04:10:01.642Z,141.10
2022-10-25T04:12:27.889Z,128.30
2022-10-25T04:14:54.134Z,133.18
2022-10-25T04:17:20.550Z,131.50
2022-10-25T04:19:46.814Z,129.55
2022-10-25T04:22:13.237Z,95.43
2022-10-25T04:24:39.547Z,77.70
2022-10-25T04:27:05.818Z,80.20
2022-10-25T04:29:32.080Z,78.72
2022-10-25T04:31:58.342Z,94.18
2022-10-25T04:34:24.587Z,92.88
2022-10-25T04:36:50.844Z,99.90
2022-10-25T04:39:17.104Z,91.45
2022-10-25T04:41:43.419Z,81.03
2022-10-25T04:44:09.687Z,82.40
2022-10-25T04:46:35.991Z,86.55
2022-10-25T04:49:02.256Z,86.53
2022-10-25T04:51:28.671Z,87.22
2022-10-25T04:53:54.921Z,85.45
2022-10-25T04:56:21.182Z,85.30
2022-10-25T04:58:47.445Z,80.07
2022-10-25T05:01:13.770Z,80.82
2022-10-25T05:03:40.025Z,84.50
2022-10-25T05:06:06.497Z,93.70
2022-10-25T05:08:32.799Z,97.57
2022-10-25T05:10:59.070Z,106.20
2022-10-25T05:13:25.327Z,100.15
2022-10-25T05:15:51.592Z,103.95
2022-10-25T05:18:17.853Z,110.28
2022-10-25T05:20:44.482Z,121.50
2022-10-25T05:23:10.794Z,108.97
2022-10-25T05:25:37.077Z,110.97
2022-10-25T05:28:03.478Z,127.47
2022-10-25T05:30:29.740Z,113.50
2022-10-25T05:32:56.316Z,100.07
2022-10-25T05:35:22.570Z,80.95
2022-10-25T05:37:48.829Z,73.82
2022-10-25T05:40:18.322Z,84.18
2022-10-25T05:42:44.758Z,74.95
2022-10-25T05:45:11.250Z,79.63
2022-10-25T05:47:37.507Z,79.40
2022-10-25T05:50:03.750Z,84.10
2022-10-25T05:52:30.070Z,78.80
2022-10-25T05:54:56.318Z,78.50
2022-10-25T05:57:22.603Z,84.97
2022-10-25T05:59:48.850Z,85.13
2022-10-25T06:02:15.260Z,81.90
2022-10-25T06:04:41.574Z,85.90
2022-10-25T06:07:07.842Z,84.30
2022-10-25T06:09:34.086Z,79.97
2022-10-25T06:12:00.375Z,78.35
2022-10-25T06:14:26.626Z,79.88
2022-10-25T06:16:52.937Z,79.68
2022-10-25T06:19:19.196Z,75.28
2022-10-25T06:21:46.740Z,83.45
2022-10-25T06:24:13.019Z,84.35
2022-10-25T06:26:39.439Z,77.90
2022-10-25T06:29:05.799Z,77.50
2022-10-25T06:31:32.079Z,75.25
2022-10-25T06:33:58.340Z,84.75
2022-10-25T06:36:24.811Z,85.38
2022-10-25T06:38:51.131Z,88.43
2022-10-25T06:41:17.427Z,82.63
2022-10-25T06:43:43.707Z,84.15
2022-10-25T06:46:10.001Z,90.75
2022-10-25T06:48:36.418Z,90.75
2022-10-25T06:51:02.964Z,85.20
2022-10-25T06:53:29.228Z,107.38
2022-10-25T06:55:55.475Z,95.97
2022-10-25T06:58:21.730Z,104.60
2022-10-25T07:00:49.657Z,97.95
2022-10-25T07:05:42.280Z,85.45
2022-10-25T07:08:08.518Z,91.82
2022-10-25T07:10:34.827Z,87.75
2022-10-25T07:13:01.078Z,86.43
2022-10-25T07:15:27.355Z,92.50
2022-10-25T07:17:53.606Z,92.30
2022-10-25T07:20:19.864Z,88.85
2022-10-25T07:22:46.387Z,92.18
2022-10-25T07:25:12.637Z,70.40
2022-10-25T07:27:38.935Z,69.68
2022-10-25T07:30:05.207Z,80.15
2022-10-25T07:32:31.502Z,72.45
2022-10-25T07:37:28.919Z,131.27
2022-10-25T07:39:55.178Z,115.47
2022-10-25T07:42:21.431Z,100.57
2022-10-25T07:44:47.714Z,68.35
2022-10-25T07:47:13.995Z,72.95
2022-10-25T07:49:40.293Z,73.78
2022-10-25T07:52:06.549Z,70.63
2022-10-25T07:54:32.897Z,80.70
2022-10-25T07:56:59.274Z,87.47
2022-10-25T07:59:25.526Z,180.00
2022-10-25T08:01:51.880Z,137.70
2022-10-25T08:04:18.335Z,94.45
2022-10-25T08:06:44.694Z,104.32
2022-10-25T08:09:15.026Z,1999.90
2022-10-25T08:11:52.909Z,1999.90
2022-10-25T08:16:54.270Z,1999.90
2022-10-25T08:19:20.517Z,1999.90
2022-10-25T08:21:46.803Z,1999.90
2022-10-25T08:24:13.202Z,1999.90
2022-10-25T08:26:39.707Z,1999.90
2022-10-25T08:29:06.011Z,1999.90
2022-10-25T08:31:32.291Z,1999.90
2022-10-25T08:33:58.591Z,1999.90
2022-10-25T08:36:26.462Z,1999.90
2022-10-25T08:38:52.900Z,1999.90
2022-10-25T08:41:19.151Z,1999.90
2022-10-25T08:43:45.784Z,1999.90
2022-10-25T08:46:13.641Z,1999.90
2022-10-25T08:48:39.927Z,1999.90
2022-10-25T08:51:06.188Z,1999.90
2022-10-25T08:53:32.904Z,1999.90
2022-10-25T08:56:15.717Z,1999.90
2022-10-25T08:58:42.700Z,1999.90
2022-10-25T09:01:08.988Z,1999.90
2022-10-25T09:03:35.317Z,1999.90
2022-10-25T09:06:02.220Z,1999.90
2022-10-25T09:08:28.499Z,1999.90
2022-10-25T09:10:54.790Z,1999.90
2022-10-25T09:13:21.042Z,1999.90
2022-10-25T09:15:47.295Z,1999.90
2022-10-25T09:18:13.580Z,1999.90
2022-10-25T09:20:41.514Z,1999.90
2022-10-25T09:25:34.002Z,1999.90
2022-10-25T09:28:04.259Z,1999.90
2022-10-25T09:30:30.522Z,1999.90
2022-10-25T09:32:56.884Z,1999.90
2022-10-25T09:35:23.159Z,1999.90
2022-10-25T09:37:49.811Z,1999.90
2022-10-25T09:40:16.366Z,1999.90
2022-10-25T09:42:42.651Z,1999.90
2022-10-25T09:45:08.919Z,1999.90
2022-10-25T09:47:35.208Z,1999.90
2022-10-25T09:50:01.463Z,1999.90
2022-10-25T09:52:29.003Z,1999.90
2022-10-25T09:54:55.254Z,1999.90
2022-10-25T09:57:21.501Z,1999.90
2022-10-25T09:59:47.759Z,1999.90
2022-10-25T10:02:14.114Z,1999.90
2022-10-25T10:04:40.476Z,1999.90
2022-10-25T10:07:07.134Z,1999.90
2022-10-25T10:09:33.394Z,1999.90
2022-10-25T10:11:59.644Z,1999.90
2022-10-25T10:14:26.071Z,1999.90
2022-10-25T10:16:52.332Z,1999.90
2022-10-25T10:19:18.603Z,1999.90
2022-10-25T10:21:44.914Z,1999.90
2022-10-25T10:24:11.165Z,1999.90
2022-10-25T10:26:37.452Z,1999.90
2022-10-25T10:29:07.855Z,1999.90
2022-10-25T10:31:35.874Z,1999.90
2022-10-25T10:34:02.141Z,1999.90
2022-10-25T10:36:28.451Z,1999.90
2022-10-25T10:38:54.823Z,1999.90
2022-10-25T10:41:21.095Z,1999.90
2022-10-25T10:43:47.372Z,1999.90
2022-10-25T10:46:17.093Z,1999.90
2022-10-25T10:48:43.511Z,1999.90
2022-10-25T10:51:25.229Z,1999.90
2022-10-25T10:53:56.078Z,1999.90
2022-10-25T10:56:23.127Z,1999.90
2022-10-25T10:58:53.240Z,1999.90
2022-10-25T11:01:20.113Z,1999.90
2022-10-25T11:03:59.123Z,1999.90
2022-10-25T11:06:29.586Z,1999.90
2022-10-25T11:08:55.845Z,1999.90
2022-10-25T11:11:22.116Z,1999.90
2022-10-25T11:13:51.146Z,1999.90
2022-10-25T11:16:18.908Z,1999.90
2022-10-25T11:18:45.902Z,1999.90
2022-10-25T11:21:12.217Z,1999.90
2022-10-25T11:23:38.495Z,1999.90
2022-10-25T11:26:04.811Z,1999.90
2022-10-25T11:28:31.075Z,1999.90
2022-10-25T11:30:57.339Z,1999.90
2022-10-25T11:33:23.613Z,1999.90
2022-10-25T11:35:50.040Z,1999.90
2022-10-25T11:38:16.351Z,1999.90
2022-10-25T11:40:42.706Z,1999.90
2022-10-25T11:43:08.971Z,1999.90
2022-10-25T11:45:35.310Z,1999.90
2022-10-25T11:48:01.581Z,1999.90
2022-10-25T11:50:28.048Z,1999.90
2022-10-25T11:52:56.096Z,1999.90
2022-10-25T11:55:23.487Z,1999.90
2022-10-25T11:57:49.793Z,1999.90
2022-10-25T12:00:16.114Z,1999.90
2022-10-25T12:05:33.288Z,1999.90
2022-10-25T12:07:59.540Z,1999.90
2022-10-25T12:10:25.799Z,1999.90
2022-10-25T12:12:52.099Z,1999.90
2022-10-25T12:15:18.414Z,1999.90
2022-10-25T12:17:44.700Z,1999.90
2022-10-25T12:20:10.951Z,1999.90
2022-10-25T12:22:37.269Z,1999.90
2022-10-25T12:25:03.564Z,1999.90
2022-10-25T12:27:29.822Z,1999.90
2022-10-25T12:29:56.092Z,1999.90
2022-10-25T12:32:22.359Z,1999.90
2022-10-25T12:34:49.129Z,1999.90
2022-10-25T12:37:15.420Z,1999.90
2022-10-25T12:39:41.714Z,1999.90
2022-10-25T12:42:09.220Z,1999.90
2022-10-25T12:44:35.494Z,1999.90
2022-10-25T12:47:01.769Z,1999.90
2022-10-25T12:49:28.029Z,1999.90
2022-10-25T12:51:54.289Z,1999.90
2022-10-25T12:54:20.551Z,1999.90
2022-10-25T12:56:47.015Z,1999.90
2022-10-25T12:59:13.321Z,1999.90
2022-10-25T13:01:39.693Z,1999.90
2022-10-25T13:04:06.082Z,1999.90
2022-10-25T13:06:32.407Z,1999.90
2022-10-25T13:08:58.658Z,1999.90
2022-10-25T13:11:24.938Z,1999.90
2022-10-25T13:13:51.229Z,1999.90
2022-10-25T13:16:17.612Z,1999.90
2022-10-25T13:18:43.960Z,1999.90
2022-10-25T13:21:10.234Z,1999.90
2022-10-25T13:23:36.549Z,1999.90
2022-10-25T13:26:02.799Z,1999.90
2022-10-25T13:28:32.721Z,1999.90
2022-10-25T13:31:01.622Z,1999.90
2022-10-25T13:33:27.920Z,1999.90
2022-10-25T13:35:54.187Z,1999.90
2022-10-25T13:38:20.463Z,1999.90
2022-10-25T13:40:46.711Z,1999.90
2022-10-25T13:43:12.985Z,1999.90
2022-10-25T13:45:39.293Z,1999.90
2022-10-25T13:48:05.590Z,1999.90
2022-10-25T13:50:33.131Z,1999.90
2022-10-25T13:53:01.736Z,1999.90
2022-10-25T13:55:29.312Z,1999.90
2022-10-25T13:57:55.613Z,1999.90
2022-10-25T14:00:21.921Z,1999.90
2022-10-25T14:02:48.585Z,1999.90
2022-10-25T14:05:15.032Z,1999.90
2022-10-25T14:10:32.199Z,1999.90
2022-10-25T14:12:58.470Z,1999.90
2022-10-25T14:15:24.726Z,1999.90
2022-10-25T14:17:50.998Z,1999.90
2022-10-25T14:20:17.269Z,1999.90
2022-10-25T14:22:43.580Z,1999.90
2022-10-25T14:25:09.841Z,1999.90
2022-10-25T14:27:36.131Z,1999.90
2022-10-25T14:30:02.437Z,1999.90
2022-10-25T14:32:28.752Z,1999.90
2022-10-25T14:34:55.006Z,1999.90
2022-10-25T14:37:21.254Z,1999.90
2022-10-25T14:39:47.507Z,1999.90
2022-10-25T14:42:13.795Z,1999.90
2022-10-25T14:44:40.227Z,1999.90
2022-10-25T14:47:06.479Z,1999.90
2022-10-25T14:49:32.745Z,1999.90
2022-10-25T14:51:59.039Z,1999.90
2022-10-25T14:54:25.311Z,1999.90
2022-10-25T14:56:51.612Z,1999.90
2022-10-25T14:59:18.064Z,1999.90
2022-10-25T15:01:44.352Z,1999.90
2022-10-25T15:04:10.640Z,1999.90
2022-10-25T15:06:36.898Z,1999.90
2022-10-25T15:09:41.813Z,1999.90
2022-10-25T15:11:49.656Z,1999.90
2022-10-25T15:14:18.914Z,1999.90
2022-10-25T15:19:47.944Z,1999.90
2022-10-25T15:22:14.231Z,1999.90
2022-10-25T15:24:40.499Z,1999.90
2022-10-25T15:27:06.770Z,1999.90
2022-10-25T15:29:33.058Z,1999.90
2022-10-25T15:31:59.336Z,1999.90
2022-10-25T15:34:25.615Z,1999.90
2022-10-25T15:36:51.964Z,1999.90
2022-10-25T15:39:18.227Z,1999.90
2022-10-25T15:41:44.485Z,1999.90
2022-10-25T15:44:10.752Z,1999.90
2022-10-25T15:46:37.975Z,1999.90
2022-10-25T15:49:04.233Z,1999.90
2022-10-25T15:51:31.207Z,1999.90
2022-10-25T15:53:57.754Z,1999.90
2022-10-25T15:56:24.374Z,1999.90
2022-10-25T15:58:51.364Z,1999.90
2022-10-25T16:01:17.631Z,1999.90
2022-10-25T16:03:44.078Z,1999.90
2022-10-25T16:06:10.340Z,1999.90
2022-10-25T16:11:07.980Z,1999.90
2022-10-25T16:13:34.240Z,1999.90
2022-10-25T16:16:04.611Z,1999.90
2022-10-25T16:21:04.414Z,1999.90
2022-10-25T16:23:31.091Z,1999.90
2022-10-25T16:25:57.419Z,1999.90
2022-10-25T16:30:54.952Z,1999.90
2022-10-25T16:33:21.207Z,1999.90
2022-10-25T16:35:47.494Z,1999.90
2022-10-25T16:38:15.573Z,1999.90
2022-10-25T16:40:41.840Z,1999.90
2022-10-25T16:43:08.150Z,1999.90
2022-10-25T16:45:34.458Z,1999.90
2022-10-25T16:48:01.001Z,1999.90
2022-10-25T16:50:27.287Z,1999.90
2022-10-25T16:52:53.621Z,1999.90
2022-10-25T16:55:19.907Z,1999.90
2022-10-25T16:57:46.175Z,1999.90
2022-10-25T17:00:12.452Z,1999.90
2022-10-25T17:02:38.917Z,1999.90
2022-10-25T17:05:05.216Z,1999.90
2022-10-25T17:07:31.518Z,1999.90
2022-10-25T17:09:57.821Z,1999.90
2022-10-25T17:12:24.085Z,1999.90
2022-10-25T17:14:50.342Z,1999.90
2022-10-25T17:17:16.645Z,1999.90
2022-10-25T17:19:42.945Z,1999.90
2022-10-25T17:22:09.222Z,1999.90
2022-10-25T17:24:37.469Z,1999.90
2022-10-25T17:29:35.015Z,1999.90
2022-10-25T17:32:01.283Z,1999.90
2022-10-25T17:34:27.596Z,1999.90
2022-10-25T17:36:54.055Z,1999.90
2022-10-25T17:39:20.370Z,1999.90
2022-10-25T17:41:46.618Z,1999.90
2022-10-25T17:44:12.930Z,1999.90
2022-10-25T17:46:39.339Z,1999.90
2022-10-25T17:49:05.893Z,1999.90
2022-10-25T17:51:32.227Z,1999.90
2022-10-25T17:53:58.492Z,1999.90
2022-10-25T17:56:24.821Z,1999.90
2022-10-25T17:58:51.988Z,1999.90
2022-10-25T18:01:18.244Z,1999.90
2022-10-25T18:03:45.768Z,1999.90
2022-10-25T18:06:12.167Z,1999.90
2022-10-25T18:08:42.130Z,1999.90
2022-10-25T18:11:08.774Z,1999.90
2022-10-25T18:13:36.975Z,1999.90
2022-10-25T18:16:07.803Z,1999.90
2022-10-25T18:18:34.326Z,1999.90
2022-10-25T18:21:00.581Z,1999.90
2022-10-25T18:23:26.891Z,1999.90
2022-10-25T18:25:53.229Z,1999.90
2022-10-25T18:28:19.693Z,1999.90
2022-10-25T18:30:46.003Z,1999.90
2022-10-25T18:33:14.628Z,1999.90
2022-10-25T18:38:15.709Z,1999.90
2022-10-25T18:40:44.115Z,1999.90
2022-10-25T18:43:10.398Z,1999.90
2022-10-25T18:45:36.674Z,1999.90
2022-10-25T18:48:02.945Z,1999.90
2022-10-25T18:50:29.210Z,1999.90
2022-10-25T18:52:55.467Z,1999.90
2022-10-25T18:55:26.461Z,1999.90
2022-10-25T18:57:54.710Z,1999.90
2022-10-25T19:00:23.603Z,1999.90
2022-10-25T19:02:52.392Z,1999.90
2022-10-25T19:05:19.017Z,1999.90
2022-10-25T19:07:45.424Z,1999.90
2022-10-25T19:10:11.840Z,604.30
2022-10-25T19:12:38.094Z,1999.90
2022-10-25T19:15:04.508Z,1999.90
2022-10-25T19:17:30.767Z,93.88
2022-10-25T19:19:57.093Z,108.60
2022-10-25T19:22:23.342Z,117.35
2022-10-25T19:24:49.647Z,102.50
2022-10-25T19:27:15.941Z,106.40
2022-10-25T19:29:42.204Z,92.50
2022-10-25T19:32:08.466Z,111.90
2022-10-25T19:34:34.764Z,112.78
2022-10-25T19:37:04.458Z,112.95
2022-10-25T19:39:30.712Z,94.75
2022-10-25T19:41:58.979Z,93.13
2022-10-25T19:44:25.247Z,101.70
2022-10-25T19:46:51.502Z,130.18
2022-10-25T19:49:17.763Z,153.50
2022-10-25T19:51:44.013Z,174.00
2022-10-25T19:54:10.331Z,151.57
2022-10-25T19:56:38.561Z,175.95
2022-10-25T19:59:04.939Z,193.82
2022-10-25T20:01:31.337Z,140.73
2022-10-25T20:03:57.716Z,90.45
2022-10-25T20:06:24.904Z,79.78
2022-10-25T20:08:54.931Z,74.70
2022-10-25T20:11:21.199Z,76.40
2022-10-25T20:13:47.476Z,97.40
2022-10-25T20:16:14.027Z,106.38
2022-10-25T20:18:40.286Z,73.25
2022-10-25T20:21:07.284Z,73.53
2022-10-25T20:23:33.534Z,81.40
2022-10-25T20:25:59.786Z,87.43
2022-10-25T20:28:26.060Z,75.68
2022-10-25T20:30:52.316Z,70.38
2022-10-25T20:33:20.372Z,71.30
2022-10-25T20:38:12.949Z,67.35
2022-10-25T20:40:39.242Z,91.43
2022-10-25T20:43:05.489Z,107.45
2022-10-25T20:45:31.758Z,109.05
2022-10-25T20:47:58.008Z,87.00
2022-10-25T20:50:24.264Z,75.57
2022-10-25T20:53:09.370Z,77.28
2022-10-25T20:55:36.676Z,78.95
2022-10-25T20:58:02.971Z,74.13
2022-10-25T21:00:29.274Z,71.30
2022-10-25T21:02:55.530Z,71.20
2022-10-25T21:05:21.787Z,66.50
2022-10-25T21:07:48.368Z,73.30
2022-10-25T21:10:14.779Z,69.55
2022-10-25T21:12:41.084Z,74.40
2022-10-25T21:15:11.804Z,75.65
2022-10-25T21:17:38.641Z,78.57
2022-10-25T21:20:04.924Z,71.55
2022-10-25T21:22:31.176Z,72.45
2022-10-25T21:24:57.437Z,67.65
2022-10-25T21:27:23.732Z,65.20
2022-10-25T21:29:50.062Z,68.15
2022-10-25T21:32:16.347Z,63.60
2022-10-25T21:34:42.600Z,62.53
2022-10-25T21:37:08.880Z,63.22
2022-10-25T21:39:35.171Z,62.88
2022-10-25T21:42:01.424Z,63.05
2022-10-25T21:44:28.740Z,62.33
2022-10-25T21:46:55.036Z,62.25
2022-10-25T21:49:21.388Z,66.88
2022-10-25T21:51:47.783Z,62.35
2022-10-25T21:54:14.083Z,57.03
2022-10-25T21:56:40.336Z,58.70
2022-10-25T21:59:06.598Z,56.72
2022-10-25T22:01:33.020Z,59.88
2022-10-25T22:03:59.375Z,57.97
2022-10-25T22:06:25.654Z,60.10
2022-10-25T22:08:55.898Z,59.95
2022-10-25T22:11:22.178Z,59.53
2022-10-25T22:13:48.429Z,58.08
2022-10-25T22:16:14.681Z,60.15
2022-10-25T22:18:40.959Z,64.75
2022-10-25T22:21:07.280Z,62.42
2022-10-25T22:23:33.526Z,61.85
2022-10-25T22:26:00.097Z,62.75
2022-10-25T22:28:26.348Z,62.75
2022-10-25T22:30:52.595Z,57.58
2022-10-25T22:33:18.843Z,67.28
2022-10-25T22:35:45.156Z,70.63
2022-10-25T22:38:11.411Z,66.80
2022-10-25T22:40:37.684Z,65.43
2022-10-25T22:43:04.244Z,63.67
2022-10-25T22:45:30.514Z,71.38
2022-10-25T22:47:56.771Z,71.53
2022-10-25T22:50:23.029Z,68.35
2022-10-25T22:52:49.280Z,64.35
2022-10-25T22:55:15.541Z,80.60
2022-10-25T22:57:41.786Z,83.30
2022-10-25T23:00:08.034Z,97.75
2022-10-25T23:02:34.296Z,76.25
2022-10-25T23:05:00.546Z,82.10
2022-10-25T23:07:26.961Z,83.85
2022-10-25T23:09:53.698Z,73.88
2022-10-25T23:12:19.950Z,70.75
2022-10-25T23:14:46.196Z,72.97
2022-10-25T23:17:12.479Z,59.08
2022-10-25T23:19:38.736Z,69.57
2022-10-25T23:22:04.999Z,105.30
2022-10-25T23:24:31.264Z,108.57
2022-10-25T23:26:57.506Z,130.48
2022-10-25T23:29:23.769Z,63.13
2022-10-25T23:31:50.026Z,64.93
2022-10-25T23:34:16.336Z,72.00
2022-10-25T23:36:42.622Z,77.88
2022-10-25T23:39:08.893Z,61.72
2022-10-25T23:41:35.190Z,57.15
2022-10-25T23:44:01.434Z,59.17
2022-10-25T23:46:27.676Z,56.25
2022-10-25T23:48:56.019Z,64.60
2022-10-25T23:51:22.340Z,65.03
2022-10-25T23:53:48.795Z,62.75
2022-10-25T23:56:15.058Z,59.92
2022-10-25T23:58:41.338Z,68.40
